sensor_id;sensor_type;location;lat;lon;timestamp;P1;durP1;ratioP1;P2;durP2;ratioP2
61741;SDS011;47650;49.848;9.620;2022-08-16T00:00:37;4.95;;;3.47;;
61741;SDS011;47650;49.848;9.620;2022-08-16T00:03:04;5.70;;;3.70;;
61741;SDS011;47650;49.848;9.620;2022-08-16T00:05:29;4.15;;;3.70;;
61741;SDS011;47650;49.848;9.620;2022-08-16T00:07:57;8.77;;;4.07;;
61741;SDS011;47650;49.848;9.620;2022-08-16T00:10:23;6.68;;;4.00;;
61741;SDS011;47650;49.848;9.620;2022-08-16T00:12:50;4.35;;;3.95;;
61741;SDS011;47650;49.848;9.620;2022-08-16T00:15:40;6.63;;;3.75;;
61741;SDS011;47650;49.848;9.620;2022-08-16T00:18:08;5.60;;;3.38;;
61741;SDS011;47650;49.848;9.620;2022-08-16T00:20:37;4.88;;;3.90;;
61741;SDS011;47650;49.848;9.620;2022-08-16T00:23:04;4.28;;;3.88;;
61741;SDS011;47650;49.848;9.620;2022-08-16T00:25:30;4.18;;;3.58;;
61741;SDS011;47650;49.848;9.620;2022-08-16T00:27:55;5.90;;;4.15;;
61741;SDS011;47650;49.848;9.620;2022-08-16T00:30:21;5.75;;;3.75;;
61741;SDS011;47650;49.848;9.620;2022-08-16T00:32:48;5.93;;;3.95;;
61741;SDS011;47650;49.848;9.620;2022-08-16T00:35:18;4.45;;;3.75;;
61741;SDS011;47650;49.848;9.620;2022-08-16T00:37:46;6.32;;;4.10;;
61741;SDS011;47650;49.848;9.620;2022-08-16T00:40:13;5.38;;;3.85;;
61741;SDS011;47650;49.848;9.620;2022-08-16T00:42:42;6.72;;;4.10;;
61741;SDS011;47650;49.848;9.620;2022-08-16T00:47:45;5.32;;;4.40;;
61741;SDS011;47650;49.848;9.620;2022-08-16T00:50:11;4.80;;;3.90;;
61741;SDS011;47650;49.848;9.620;2022-08-16T00:52:39;8.43;;;4.47;;
61741;SDS011;47650;49.848;9.620;2022-08-16T00:55:05;4.95;;;4.32;;
61741;SDS011;47650;49.848;9.620;2022-08-16T00:57:31;5.30;;;3.88;;
61741;SDS011;47650;49.848;9.620;2022-08-16T00:59:57;6.22;;;4.20;;
61741;SDS011;47650;49.848;9.620;2022-08-16T01:02:23;6.68;;;4.30;;
61741;SDS011;47650;49.848;9.620;2022-08-16T01:04:50;8.38;;;4.80;;
61741;SDS011;47650;49.848;9.620;2022-08-16T01:07:15;5.93;;;4.88;;
61741;SDS011;47650;49.848;9.620;2022-08-16T01:09:41;6.60;;;4.18;;
61741;SDS011;47650;49.848;9.620;2022-08-16T01:12:07;4.63;;;4.00;;
61741;SDS011;47650;49.848;9.620;2022-08-16T01:14:40;6.85;;;4.25;;
61741;SDS011;47650;49.848;9.620;2022-08-16T01:17:11;6.18;;;3.95;;
61741;SDS011;47650;49.848;9.620;2022-08-16T01:19:48;5.07;;;4.32;;
61741;SDS011;47650;49.848;9.620;2022-08-16T01:22:24;4.57;;;4.18;;
61741;SDS011;47650;49.848;9.620;2022-08-16T01:25:02;5.72;;;4.63;;
61741;SDS011;47650;49.848;9.620;2022-08-16T01:27:32;5.18;;;3.90;;
61741;SDS011;47650;49.848;9.620;2022-08-16T01:30:07;4.00;;;3.60;;
61741;SDS011;47650;49.848;9.620;2022-08-16T01:32:34;4.25;;;3.85;;
61741;SDS011;47650;49.848;9.620;2022-08-16T01:35:04;6.60;;;3.80;;
61741;SDS011;47650;49.848;9.620;2022-08-16T01:37:42;4.88;;;4.13;;
61741;SDS011;47650;49.848;9.620;2022-08-16T01:40:12;4.95;;;3.80;;
61741;SDS011;47650;49.848;9.620;2022-08-16T01:42:39;7.70;;;4.10;;
61741;SDS011;47650;49.848;9.620;2022-08-16T01:45:07;4.70;;;3.85;;
61741;SDS011;47650;49.848;9.620;2022-08-16T01:47:32;4.38;;;3.97;;
61741;SDS011;47650;49.848;9.620;2022-08-16T01:50:03;9.15;;;4.25;;
61741;SDS011;47650;49.848;9.620;2022-08-16T01:52:30;6.65;;;4.68;;
61741;SDS011;47650;49.848;9.620;2022-08-16T01:54:56;5.55;;;4.10;;
61741;SDS011;47650;49.848;9.620;2022-08-16T01:57:22;5.28;;;3.83;;
61741;SDS011;47650;49.848;9.620;2022-08-16T01:59:49;5.65;;;4.50;;
61741;SDS011;47650;49.848;9.620;2022-08-16T02:02:15;5.78;;;4.10;;
61741;SDS011;47650;49.848;9.620;2022-08-16T02:04:40;5.60;;;4.43;;
61741;SDS011;47650;49.848;9.620;2022-08-16T02:07:05;4.55;;;3.90;;
61741;SDS011;47650;49.848;9.620;2022-08-16T02:09:34;4.97;;;4.15;;
61741;SDS011;47650;49.848;9.620;2022-08-16T02:12:01;5.20;;;4.13;;
61741;SDS011;47650;49.848;9.620;2022-08-16T02:14:29;6.82;;;4.25;;
61741;SDS011;47650;49.848;9.620;2022-08-16T02:16:55;6.22;;;3.95;;
61741;SDS011;47650;49.848;9.620;2022-08-16T02:19:23;5.45;;;3.90;;
61741;SDS011;47650;49.848;9.620;2022-08-16T02:21:51;5.53;;;4.22;;
61741;SDS011;47650;49.848;9.620;2022-08-16T02:24:18;5.57;;;4.15;;
61741;SDS011;47650;49.848;9.620;2022-08-16T02:26:45;5.40;;;3.97;;
61741;SDS011;47650;49.848;9.620;2022-08-16T02:29:10;6.35;;;4.40;;
61741;SDS011;47650;49.848;9.620;2022-08-16T02:31:38;5.95;;;4.40;;
61741;SDS011;47650;49.848;9.620;2022-08-16T02:34:05;6.50;;;4.45;;
61741;SDS011;47650;49.848;9.620;2022-08-16T02:36:32;7.00;;;4.90;;
61741;SDS011;47650;49.848;9.620;2022-08-16T02:38:58;5.50;;;4.53;;
61741;SDS011;47650;49.848;9.620;2022-08-16T02:41:23;6.18;;;4.43;;
61741;SDS011;47650;49.848;9.620;2022-08-16T02:43:49;5.88;;;4.57;;
61741;SDS011;47650;49.848;9.620;2022-08-16T02:46:15;6.80;;;4.93;;
61741;SDS011;47650;49.848;9.620;2022-08-16T02:48:40;5.45;;;4.95;;
61741;SDS011;47650;49.848;9.620;2022-08-16T02:51:08;5.47;;;4.60;;
61741;SDS011;47650;49.848;9.620;2022-08-16T02:53:36;5.32;;;4.82;;
61741;SDS011;47650;49.848;9.620;2022-08-16T02:56:04;6.70;;;5.45;;
61741;SDS011;47650;49.848;9.620;2022-08-16T02:58:30;5.78;;;5.25;;
61741;SDS011;47650;49.848;9.620;2022-08-16T03:00:56;7.63;;;5.38;;
61741;SDS011;47650;49.848;9.620;2022-08-16T03:03:22;6.32;;;5.72;;
61741;SDS011;47650;49.848;9.620;2022-08-16T03:05:48;5.72;;;5.10;;
61741;SDS011;47650;49.848;9.620;2022-08-16T03:08:16;6.47;;;5.45;;
61741;SDS011;47650;49.848;9.620;2022-08-16T03:10:42;5.53;;;5.03;;
61741;SDS011;47650;49.848;9.620;2022-08-16T03:13:09;6.40;;;4.90;;
61741;SDS011;47650;49.848;9.620;2022-08-16T03:15:34;5.63;;;5.00;;
61741;SDS011;47650;49.848;9.620;2022-08-16T03:18:00;6.28;;;5.20;;
61741;SDS011;47650;49.848;9.620;2022-08-16T03:20:27;5.57;;;5.10;;
61741;SDS011;47650;49.848;9.620;2022-08-16T03:22:52;5.90;;;5.00;;
61741;SDS011;47650;49.848;9.620;2022-08-16T03:25:18;7.03;;;5.80;;
61741;SDS011;47650;49.848;9.620;2022-08-16T03:27:43;6.57;;;5.28;;
61741;SDS011;47650;49.848;9.620;2022-08-16T03:30:13;7.88;;;5.10;;
61741;SDS011;47650;49.848;9.620;2022-08-16T03:35:08;6.03;;;5.43;;
61741;SDS011;47650;49.848;9.620;2022-08-16T03:37:34;5.68;;;5.07;;
61741;SDS011;47650;49.848;9.620;2022-08-16T03:40:00;5.13;;;4.32;;
61741;SDS011;47650;49.848;9.620;2022-08-16T03:42:26;5.80;;;5.13;;
61741;SDS011;47650;49.848;9.620;2022-08-16T03:44:52;8.00;;;5.63;;
61741;SDS011;47650;49.848;9.620;2022-08-16T03:47:17;6.75;;;5.38;;
61741;SDS011;47650;49.848;9.620;2022-08-16T03:49:43;5.22;;;4.72;;
61741;SDS011;47650;49.848;9.620;2022-08-16T03:52:08;5.90;;;5.30;;
61741;SDS011;47650;49.848;9.620;2022-08-16T03:54:34;6.93;;;5.32;;
61741;SDS011;47650;49.848;9.620;2022-08-16T03:57:00;6.35;;;5.72;;
61741;SDS011;47650;49.848;9.620;2022-08-16T03:59:27;8.38;;;5.93;;
61741;SDS011;47650;49.848;9.620;2022-08-16T04:01:52;8.30;;;6.22;;
61741;SDS011;47650;49.848;9.620;2022-08-16T04:04:18;5.63;;;5.13;;
61741;SDS011;47650;49.848;9.620;2022-08-16T04:06:43;6.50;;;5.90;;
61741;SDS011;47650;49.848;9.620;2022-08-16T04:09:08;7.38;;;6.53;;
61741;SDS011;47650;49.848;9.620;2022-08-16T04:11:36;8.32;;;5.90;;
61741;SDS011;47650;49.848;9.620;2022-08-16T04:14:02;6.43;;;5.65;;
61741;SDS011;47650;49.848;9.620;2022-08-16T04:16:28;7.28;;;5.93;;
61741;SDS011;47650;49.848;9.620;2022-08-16T04:18:56;6.88;;;6.28;;
61741;SDS011;47650;49.848;9.620;2022-08-16T04:21:23;7.80;;;7.10;;
61741;SDS011;47650;49.848;9.620;2022-08-16T04:23:48;9.70;;;7.10;;
61741;SDS011;47650;49.848;9.620;2022-08-16T04:26:19;8.63;;;6.88;;
61741;SDS011;47650;49.848;9.620;2022-08-16T04:28:45;6.40;;;5.80;;
61741;SDS011;47650;49.848;9.620;2022-08-16T04:31:10;6.30;;;5.68;;
61741;SDS011;47650;49.848;9.620;2022-08-16T04:33:35;6.43;;;5.88;;
61741;SDS011;47650;49.848;9.620;2022-08-16T04:36:01;9.77;;;6.45;;
61741;SDS011;47650;49.848;9.620;2022-08-16T04:38:26;7.20;;;6.50;;
61741;SDS011;47650;49.848;9.620;2022-08-16T04:40:52;6.65;;;6.00;;
61741;SDS011;47650;49.848;9.620;2022-08-16T04:43:18;8.07;;;5.75;;
61741;SDS011;47650;49.848;9.620;2022-08-16T04:45:45;5.97;;;5.28;;
61741;SDS011;47650;49.848;9.620;2022-08-16T04:48:11;6.38;;;5.57;;
61741;SDS011;47650;49.848;9.620;2022-08-16T04:53:58;7.43;;;6.72;;
61741;SDS011;47650;49.848;9.620;2022-08-16T04:56:24;7.53;;;5.75;;
61741;SDS011;47650;49.848;9.620;2022-08-16T04:58:49;8.25;;;6.80;;
61741;SDS011;47650;49.848;9.620;2022-08-16T05:01:15;7.90;;;6.18;;
61741;SDS011;47650;49.848;9.620;2022-08-16T05:03:43;7.55;;;6.32;;
61741;SDS011;47650;49.848;9.620;2022-08-16T05:06:09;12.02;;;6.55;;
61741;SDS011;47650;49.848;9.620;2022-08-16T05:08:35;7.68;;;6.18;;
61741;SDS011;47650;49.848;9.620;2022-08-16T05:11:15;7.93;;;6.53;;
61741;SDS011;47650;49.848;9.620;2022-08-16T05:13:42;8.00;;;6.07;;
61741;SDS011;47650;49.848;9.620;2022-08-16T05:16:16;10.80;;;5.85;;
61741;SDS011;47650;49.848;9.620;2022-08-16T05:18:44;8.15;;;6.55;;
61741;SDS011;47650;49.848;9.620;2022-08-16T05:21:10;10.50;;;9.43;;
61741;SDS011;47650;49.848;9.620;2022-08-16T05:23:36;11.40;;;8.52;;
61741;SDS011;47650;49.848;9.620;2022-08-16T05:26:01;10.68;;;7.05;;
61741;SDS011;47650;49.848;9.620;2022-08-16T05:28:26;9.65;;;6.38;;
61741;SDS011;47650;49.848;9.620;2022-08-16T05:30:52;9.60;;;6.00;;
61741;SDS011;47650;49.848;9.620;2022-08-16T05:43:22;9.32;;;7.03;;
61741;SDS011;47650;49.848;9.620;2022-08-16T05:45:48;9.25;;;6.80;;
61741;SDS011;47650;49.848;9.620;2022-08-16T05:48:14;8.07;;;6.80;;
61741;SDS011;47650;49.848;9.620;2022-08-16T05:50:40;8.70;;;7.60;;
61741;SDS011;47650;49.848;9.620;2022-08-16T05:53:05;8.40;;;7.60;;
61741;SDS011;47650;49.848;9.620;2022-08-16T05:55:31;11.25;;;8.88;;
61741;SDS011;47650;49.848;9.620;2022-08-16T05:57:57;11.13;;;10.02;;
61741;SDS011;47650;49.848;9.620;2022-08-16T06:00:23;8.70;;;7.97;;
61741;SDS011;47650;49.848;9.620;2022-08-16T06:02:49;8.55;;;7.50;;
61741;SDS011;47650;49.848;9.620;2022-08-16T06:05:16;10.15;;;8.88;;
61741;SDS011;47650;49.848;9.620;2022-08-16T06:07:41;9.02;;;7.28;;
61741;SDS011;47650;49.848;9.620;2022-08-16T06:10:07;7.70;;;6.90;;
61741;SDS011;47650;49.848;9.620;2022-08-16T06:12:35;7.88;;;7.07;;
61741;SDS011;47650;49.848;9.620;2022-08-16T06:15:04;8.02;;;7.25;;
61741;SDS011;47650;49.848;9.620;2022-08-16T06:17:33;8.45;;;7.65;;
61741;SDS011;47650;49.848;9.620;2022-08-16T06:19:59;12.80;;;7.20;;
61741;SDS011;47650;49.848;9.620;2022-08-16T06:22:25;10.50;;;7.45;;
61741;SDS011;47650;49.848;9.620;2022-08-16T06:24:51;8.43;;;7.45;;
61741;SDS011;47650;49.848;9.620;2022-08-16T06:27:19;8.18;;;7.30;;
61741;SDS011;47650;49.848;9.620;2022-08-16T06:29:45;11.50;;;7.10;;
61741;SDS011;47650;49.848;9.620;2022-08-16T06:32:11;10.35;;;7.32;;
61741;SDS011;47650;49.848;9.620;2022-08-16T06:34:37;7.22;;;6.53;;
61741;SDS011;47650;49.848;9.620;2022-08-16T06:37:04;9.10;;;7.10;;
61741;SDS011;47650;49.848;9.620;2022-08-16T06:39:29;9.07;;;6.63;;
61741;SDS011;47650;49.848;9.620;2022-08-16T06:41:55;10.23;;;6.97;;
61741;SDS011;47650;49.848;9.620;2022-08-16T06:44:21;10.40;;;6.18;;
61741;SDS011;47650;49.848;9.620;2022-08-16T06:46:52;9.32;;;6.18;;
61741;SDS011;47650;49.848;9.620;2022-08-16T06:49:18;7.82;;;6.05;;
61741;SDS011;47650;49.848;9.620;2022-08-16T06:51:44;6.18;;;5.57;;
61741;SDS011;47650;49.848;9.620;2022-08-16T06:54:10;9.35;;;6.32;;
61741;SDS011;47650;49.848;9.620;2022-08-16T06:56:37;7.95;;;6.20;;
61741;SDS011;47650;49.848;9.620;2022-08-16T06:59:04;8.52;;;5.78;;
61741;SDS011;47650;49.848;9.620;2022-08-16T07:01:29;8.35;;;5.88;;
61741;SDS011;47650;49.848;9.620;2022-08-16T07:03:55;9.30;;;5.95;;
61741;SDS011;47650;49.848;9.620;2022-08-16T07:06:20;9.75;;;6.63;;
61741;SDS011;47650;49.848;9.620;2022-08-16T07:08:53;8.45;;;5.93;;
61741;SDS011;47650;49.848;9.620;2022-08-16T07:11:19;8.88;;;6.07;;
61741;SDS011;47650;49.848;9.620;2022-08-16T07:13:46;8.18;;;5.30;;
61741;SDS011;47650;49.848;9.620;2022-08-16T07:16:13;5.53;;;5.03;;
61741;SDS011;47650;49.848;9.620;2022-08-16T07:18:42;5.78;;;5.00;;
61741;SDS011;47650;49.848;9.620;2022-08-16T07:21:08;7.53;;;5.07;;
61741;SDS011;47650;49.848;9.620;2022-08-16T07:23:36;5.70;;;4.82;;
61741;SDS011;47650;49.848;9.620;2022-08-16T07:26:02;7.85;;;4.80;;
61741;SDS011;47650;49.848;9.620;2022-08-16T07:28:30;10.18;;;5.30;;
61741;SDS011;47650;49.848;9.620;2022-08-16T07:30:55;7.53;;;5.03;;
61741;SDS011;47650;49.848;9.620;2022-08-16T07:33:21;8.02;;;5.47;;
61741;SDS011;47650;49.848;9.620;2022-08-16T07:35:47;7.13;;;5.07;;
61741;SDS011;47650;49.848;9.620;2022-08-16T07:38:12;8.10;;;5.20;;
61741;SDS011;47650;49.848;9.620;2022-08-16T07:40:39;6.88;;;5.35;;
61741;SDS011;47650;49.848;9.620;2022-08-16T07:43:04;7.95;;;4.63;;
61741;SDS011;47650;49.848;9.620;2022-08-16T07:45:30;8.20;;;4.97;;
61741;SDS011;47650;49.848;9.620;2022-08-16T07:47:57;7.40;;;5.28;;
61741;SDS011;47650;49.848;9.620;2022-08-16T07:50:22;6.10;;;4.90;;
61741;SDS011;47650;49.848;9.620;2022-08-16T07:52:48;4.95;;;4.45;;
61741;SDS011;47650;49.848;9.620;2022-08-16T07:55:23;5.43;;;4.70;;
61741;SDS011;47650;49.848;9.620;2022-08-16T07:57:55;7.30;;;5.65;;
61741;SDS011;47650;49.848;9.620;2022-08-16T08:00:20;5.43;;;4.85;;
61741;SDS011;47650;49.848;9.620;2022-08-16T08:02:46;5.90;;;4.78;;
61741;SDS011;47650;49.848;9.620;2022-08-16T08:05:12;7.07;;;5.18;;
61741;SDS011;47650;49.848;9.620;2022-08-16T08:07:37;5.75;;;4.85;;
61741;SDS011;47650;49.848;9.620;2022-08-16T08:10:04;5.95;;;5.13;;
61741;SDS011;47650;49.848;9.620;2022-08-16T08:12:30;7.55;;;4.70;;
61741;SDS011;47650;49.848;9.620;2022-08-16T08:14:56;8.60;;;5.40;;
61741;SDS011;47650;49.848;9.620;2022-08-16T08:19:49;6.70;;;5.05;;
61741;SDS011;47650;49.848;9.620;2022-08-16T08:22:15;5.57;;;5.03;;
61741;SDS011;47650;49.848;9.620;2022-08-16T08:24:40;5.25;;;4.70;;
61741;SDS011;47650;49.848;9.620;2022-08-16T08:27:06;6.18;;;4.60;;
61741;SDS011;47650;49.848;9.620;2022-08-16T08:29:33;5.22;;;4.45;;
61741;SDS011;47650;49.848;9.620;2022-08-16T08:31:59;9.23;;;5.20;;
61741;SDS011;47650;49.848;9.620;2022-08-16T08:34:25;6.32;;;4.90;;
61741;SDS011;47650;49.848;9.620;2022-08-16T08:36:57;7.03;;;5.57;;
61741;SDS011;47650;49.848;9.620;2022-08-16T08:39:24;6.35;;;5.72;;
61741;SDS011;47650;49.848;9.620;2022-08-16T08:41:56;5.88;;;4.82;;
61741;SDS011;47650;49.848;9.620;2022-08-16T08:46:47;6.05;;;5.47;;
61741;SDS011;47650;49.848;9.620;2022-08-16T08:49:16;7.28;;;5.03;;
61741;SDS011;47650;49.848;9.620;2022-08-16T08:51:44;5.32;;;4.57;;
61741;SDS011;47650;49.848;9.620;2022-08-16T08:54:09;7.75;;;4.70;;
61741;SDS011;47650;49.848;9.620;2022-08-16T08:56:40;6.85;;;4.50;;
61741;SDS011;47650;49.848;9.620;2022-08-16T09:01:35;6.65;;;4.40;;
61741;SDS011;47650;49.848;9.620;2022-08-16T09:04:04;6.25;;;5.75;;
61741;SDS011;47650;49.848;9.620;2022-08-16T09:06:34;6.43;;;5.35;;
61741;SDS011;47650;49.848;9.620;2022-08-16T09:09:00;5.95;;;4.45;;
61741;SDS011;47650;49.848;9.620;2022-08-16T09:11:26;7.80;;;5.97;;
61741;SDS011;47650;49.848;9.620;2022-08-16T09:13:52;10.95;;;5.97;;
61741;SDS011;47650;49.848;9.620;2022-08-16T09:16:18;8.27;;;6.63;;
61741;SDS011;47650;49.848;9.620;2022-08-16T09:18:44;6.47;;;5.13;;
61741;SDS011;47650;49.848;9.620;2022-08-16T09:21:10;7.32;;;6.60;;
61741;SDS011;47650;49.848;9.620;2022-08-16T09:23:37;7.93;;;7.28;;
61741;SDS011;47650;49.848;9.620;2022-08-16T09:26:04;9.75;;;8.85;;
61741;SDS011;47650;49.848;9.620;2022-08-16T09:28:35;8.40;;;7.40;;
61741;SDS011;47650;49.848;9.620;2022-08-16T09:31:02;6.97;;;6.28;;
61741;SDS011;47650;49.848;9.620;2022-08-16T09:33:27;8.57;;;7.78;;
61741;SDS011;47650;49.848;9.620;2022-08-16T09:35:53;7.20;;;6.60;;
61741;SDS011;47650;49.848;9.620;2022-08-16T09:38:19;9.52;;;8.52;;
61741;SDS011;47650;49.848;9.620;2022-08-16T09:40:46;9.00;;;8.10;;
61741;SDS011;47650;49.848;9.620;2022-08-16T09:43:19;7.63;;;6.93;;
61741;SDS011;47650;49.848;9.620;2022-08-16T09:45:45;8.73;;;7.95;;
61741;SDS011;47650;49.848;9.620;2022-08-16T09:48:14;8.27;;;7.18;;
61741;SDS011;47650;49.848;9.620;2022-08-16T09:50:45;8.02;;;7.47;;
61741;SDS011;47650;49.848;9.620;2022-08-16T09:53:15;10.43;;;9.82;;
61741;SDS011;47650;49.848;9.620;2022-08-16T09:55:43;9.65;;;8.73;;
61741;SDS011;47650;49.848;9.620;2022-08-16T09:58:11;10.40;;;9.43;;
61741;SDS011;47650;49.848;9.620;2022-08-16T10:00:37;9.13;;;8.43;;
61741;SDS011;47650;49.848;9.620;2022-08-16T10:03:04;8.07;;;7.28;;
61741;SDS011;47650;49.848;9.620;2022-08-16T10:05:30;6.93;;;6.32;;
61741;SDS011;47650;49.848;9.620;2022-08-16T10:07:57;11.32;;;7.20;;
61741;SDS011;47650;49.848;9.620;2022-08-16T10:10:22;8.73;;;7.45;;
61741;SDS011;47650;49.848;9.620;2022-08-16T10:12:49;8.15;;;5.20;;
61741;SDS011;47650;49.848;9.620;2022-08-16T10:15:34;7.05;;;6.45;;
61741;SDS011;47650;49.848;9.620;2022-08-16T10:18:02;8.00;;;6.28;;
61741;SDS011;47650;49.848;9.620;2022-08-16T10:20:32;6.40;;;5.80;;
61741;SDS011;47650;49.848;9.620;2022-08-16T10:23:03;5.83;;;5.40;;
61741;SDS011;47650;49.848;9.620;2022-08-16T10:25:40;6.35;;;5.70;;
61741;SDS011;47650;49.848;9.620;2022-08-16T10:28:11;6.32;;;5.70;;
61741;SDS011;47650;49.848;9.620;2022-08-16T10:30:38;6.15;;;5.57;;
61741;SDS011;47650;49.848;9.620;2022-08-16T10:33:07;7.20;;;4.90;;
61741;SDS011;47650;49.848;9.620;2022-08-16T10:35:33;6.28;;;5.68;;
61741;SDS011;47650;49.848;9.620;2022-08-16T10:37:59;5.75;;;5.25;;
61741;SDS011;47650;49.848;9.620;2022-08-16T10:40:28;5.97;;;5.43;;
61741;SDS011;47650;49.848;9.620;2022-08-16T10:42:56;6.05;;;5.07;;
61741;SDS011;47650;49.848;9.620;2022-08-16T10:45:26;6.70;;;5.70;;
61741;SDS011;47650;49.848;9.620;2022-08-16T10:47:54;6.07;;;5.57;;
61741;SDS011;47650;49.848;9.620;2022-08-16T10:50:20;5.15;;;4.75;;
61741;SDS011;47650;49.848;9.620;2022-08-16T10:52:45;5.85;;;4.95;;
61741;SDS011;47650;49.848;9.620;2022-08-16T10:55:12;5.40;;;4.90;;
61741;SDS011;47650;49.848;9.620;2022-08-16T10:57:39;5.30;;;4.00;;
61741;SDS011;47650;49.848;9.620;2022-08-16T11:00:07;6.78;;;4.88;;
61741;SDS011;47650;49.848;9.620;2022-08-16T11:02:36;7.20;;;5.43;;
61741;SDS011;47650;49.848;9.620;2022-08-16T11:05:03;6.57;;;5.10;;
61741;SDS011;47650;49.848;9.620;2022-08-16T11:07:30;7.53;;;5.20;;
61741;SDS011;47650;49.848;9.620;2022-08-16T11:09:57;5.10;;;4.70;;
61741;SDS011;47650;49.848;9.620;2022-08-16T11:12:26;4.60;;;4.20;;
61741;SDS011;47650;49.848;9.620;2022-08-16T11:14:54;5.25;;;3.22;;
61741;SDS011;47650;49.848;9.620;2022-08-16T11:17:20;4.97;;;4.50;;
61741;SDS011;47650;49.848;9.620;2022-08-16T11:19:49;5.32;;;3.50;;
61741;SDS011;47650;49.848;9.620;2022-08-16T11:22:14;4.60;;;4.05;;
61741;SDS011;47650;49.848;9.620;2022-08-16T11:24:40;4.72;;;3.88;;
61741;SDS011;47650;49.848;9.620;2022-08-16T11:27:10;6.75;;;4.05;;
61741;SDS011;47650;49.848;9.620;2022-08-16T11:29:42;4.13;;;3.72;;
61741;SDS011;47650;49.848;9.620;2022-08-16T11:32:08;5.05;;;4.53;;
61741;SDS011;47650;49.848;9.620;2022-08-16T11:34:33;6.90;;;4.55;;
61741;SDS011;47650;49.848;9.620;2022-08-16T11:36:59;4.35;;;3.95;;
61741;SDS011;47650;49.848;9.620;2022-08-16T11:39:26;6.20;;;4.32;;
61741;SDS011;47650;49.848;9.620;2022-08-16T11:41:55;5.50;;;4.57;;
61741;SDS011;47650;49.848;9.620;2022-08-16T11:44:21;6.65;;;4.85;;
61741;SDS011;47650;49.848;9.620;2022-08-16T11:46:47;4.40;;;3.90;;
61741;SDS011;47650;49.848;9.620;2022-08-16T11:49:13;5.18;;;4.00;;
61741;SDS011;47650;49.848;9.620;2022-08-16T11:51:40;4.43;;;3.22;;
61741;SDS011;47650;49.848;9.620;2022-08-16T11:54:10;6.55;;;3.72;;
61741;SDS011;47650;49.848;9.620;2022-08-16T11:56:38;4.00;;;3.60;;
61741;SDS011;47650;49.848;9.620;2022-08-16T11:59:04;7.00;;;3.72;;
61741;SDS011;47650;49.848;9.620;2022-08-16T12:01:30;3.85;;;3.55;;
61741;SDS011;47650;49.848;9.620;2022-08-16T12:03:57;4.43;;;3.63;;
61741;SDS011;47650;49.848;9.620;2022-08-16T12:06:24;6.30;;;4.10;;
61741;SDS011;47650;49.848;9.620;2022-08-16T12:08:50;7.25;;;3.75;;
61741;SDS011;47650;49.848;9.620;2022-08-16T12:11:17;4.70;;;3.30;;
61741;SDS011;47650;49.848;9.620;2022-08-16T12:13:44;3.78;;;3.47;;
61741;SDS011;47650;49.848;9.620;2022-08-16T12:16:10;4.40;;;3.40;;
61741;SDS011;47650;49.848;9.620;2022-08-16T12:18:36;4.45;;;3.28;;
61741;SDS011;47650;49.848;9.620;2022-08-16T12:21:02;3.72;;;3.30;;
61741;SDS011;47650;49.848;9.620;2022-08-16T12:23:28;4.32;;;3.55;;
61741;SDS011;47650;49.848;9.620;2022-08-16T12:25:54;4.75;;;2.95;;
61741;SDS011;47650;49.848;9.620;2022-08-16T12:28:20;5.22;;;3.10;;
61741;SDS011;47650;49.848;9.620;2022-08-16T12:30:46;5.55;;;3.20;;
61741;SDS011;47650;49.848;9.620;2022-08-16T12:33:12;3.30;;;2.90;;
61741;SDS011;47650;49.848;9.620;2022-08-16T12:35:45;4.80;;;3.08;;
61741;SDS011;47650;49.848;9.620;2022-08-16T12:38:15;3.38;;;3.08;;
61741;SDS011;47650;49.848;9.620;2022-08-16T12:40:41;3.58;;;3.15;;
61741;SDS011;47650;49.848;9.620;2022-08-16T12:43:09;4.00;;;3.17;;
61741;SDS011;47650;49.848;9.620;2022-08-16T12:45:41;3.55;;;3.25;;
61741;SDS011;47650;49.848;9.620;2022-08-16T12:48:09;5.05;;;3.38;;
61741;SDS011;47650;49.848;9.620;2022-08-16T12:50:56;3.88;;;3.47;;
61741;SDS011;47650;49.848;9.620;2022-08-16T12:53:22;3.78;;;3.38;;
61741;SDS011;47650;49.848;9.620;2022-08-16T12:55:53;4.40;;;3.70;;
61741;SDS011;47650;49.848;9.620;2022-08-16T12:58:19;5.80;;;3.35;;
61741;SDS011;47650;49.848;9.620;2022-08-16T13:00:45;6.78;;;3.17;;
61741;SDS011;47650;49.848;9.620;2022-08-16T13:03:17;5.65;;;2.55;;
61741;SDS011;47650;49.848;9.620;2022-08-16T13:05:44;4.38;;;3.70;;
61741;SDS011;47650;49.848;9.620;2022-08-16T13:08:10;5.32;;;3.42;;
61741;SDS011;47650;49.848;9.620;2022-08-16T13:10:39;4.38;;;2.85;;
61741;SDS011;47650;49.848;9.620;2022-08-16T13:13:14;3.67;;;3.08;;
61741;SDS011;47650;49.848;9.620;2022-08-16T13:15:50;4.00;;;2.75;;
61741;SDS011;47650;49.848;9.620;2022-08-16T13:18:21;3.40;;;2.92;;
61741;SDS011;47650;49.848;9.620;2022-08-16T13:20:48;3.30;;;3.00;;
61741;SDS011;47650;49.848;9.620;2022-08-16T13:23:14;3.85;;;2.78;;
61741;SDS011;47650;49.848;9.620;2022-08-16T13:25:46;4.75;;;3.00;;
61741;SDS011;47650;49.848;9.620;2022-08-16T13:28:13;3.05;;;2.85;;
61741;SDS011;47650;49.848;9.620;2022-08-16T13:30:40;3.15;;;2.80;;
61741;SDS011;47650;49.848;9.620;2022-08-16T13:33:21;4.30;;;2.70;;
61741;SDS011;47650;49.848;9.620;2022-08-16T13:35:55;5.28;;;3.08;;
61741;SDS011;47650;49.848;9.620;2022-08-16T13:38:25;3.10;;;2.80;;
61741;SDS011;47650;49.848;9.620;2022-08-16T13:40:51;2.88;;;2.65;;
61741;SDS011;47650;49.848;9.620;2022-08-16T13:43:20;2.92;;;2.70;;
61741;SDS011;47650;49.848;9.620;2022-08-16T13:45:47;3.95;;;3.47;;
61741;SDS011;47650;49.848;9.620;2022-08-16T13:48:12;4.22;;;3.00;;
61741;SDS011;47650;49.848;9.620;2022-08-16T13:50:37;2.60;;;2.40;;
61741;SDS011;47650;49.848;9.620;2022-08-16T13:53:03;3.33;;;2.60;;
61741;SDS011;47650;49.848;9.620;2022-08-16T13:55:30;3.20;;;2.88;;
61741;SDS011;47650;49.848;9.620;2022-08-16T13:57:55;3.15;;;2.85;;
61741;SDS011;47650;49.848;9.620;2022-08-16T14:00:22;3.07;;;2.77;;
61741;SDS011;47650;49.848;9.620;2022-08-16T14:02:48;3.20;;;2.80;;
61741;SDS011;47650;49.848;9.620;2022-08-16T14:05:15;4.38;;;2.90;;
61741;SDS011;47650;49.848;9.620;2022-08-16T14:07:46;6.25;;;2.80;;
61741;SDS011;47650;49.848;9.620;2022-08-16T14:10:14;4.65;;;3.10;;
61741;SDS011;47650;49.848;9.620;2022-08-16T14:12:43;3.25;;;2.88;;
61741;SDS011;47650;49.848;9.620;2022-08-16T14:15:10;3.38;;;3.03;;
61741;SDS011;47650;49.848;9.620;2022-08-16T14:17:37;4.82;;;2.90;;
61741;SDS011;47650;49.848;9.620;2022-08-16T14:20:03;3.75;;;2.75;;
61741;SDS011;47650;49.848;9.620;2022-08-16T14:22:31;3.97;;;2.72;;
61741;SDS011;47650;49.848;9.620;2022-08-16T14:24:59;3.25;;;2.80;;
61741;SDS011;47650;49.848;9.620;2022-08-16T14:27:26;4.07;;;2.90;;
61741;SDS011;47650;49.848;9.620;2022-08-16T14:29:53;4.90;;;3.28;;
61741;SDS011;47650;49.848;9.620;2022-08-16T14:32:21;4.07;;;2.78;;
61741;SDS011;47650;49.848;9.620;2022-08-16T14:34:48;5.15;;;3.53;;
61741;SDS011;47650;49.848;9.620;2022-08-16T14:37:15;6.18;;;3.75;;
61741;SDS011;47650;49.848;9.620;2022-08-16T14:39:40;6.10;;;4.18;;
61741;SDS011;47650;49.848;9.620;2022-08-16T14:42:07;3.50;;;3.20;;
61741;SDS011;47650;49.848;9.620;2022-08-16T14:44:35;3.20;;;2.90;;
61741;SDS011;47650;49.848;9.620;2022-08-16T14:47:01;2.97;;;2.67;;
61741;SDS011;47650;49.848;9.620;2022-08-16T14:49:28;5.35;;;3.05;;
61741;SDS011;47650;49.848;9.620;2022-08-16T14:51:53;3.33;;;2.40;;
61741;SDS011;47650;49.848;9.620;2022-08-16T14:54:24;3.95;;;2.60;;
61741;SDS011;47650;49.848;9.620;2022-08-16T14:56:49;2.97;;;2.67;;
61741;SDS011;47650;49.848;9.620;2022-08-16T14:59:15;3.08;;;2.70;;
61741;SDS011;47650;49.848;9.620;2022-08-16T15:01:40;2.83;;;2.63;;
61741;SDS011;47650;49.848;9.620;2022-08-16T15:04:05;3.50;;;2.70;;
61741;SDS011;47650;49.848;9.620;2022-08-16T15:06:30;3.03;;;2.73;;
61741;SDS011;47650;49.848;9.620;2022-08-16T15:08:56;3.90;;;2.53;;
61741;SDS011;47650;49.848;9.620;2022-08-16T15:11:21;3.13;;;2.40;;
61741;SDS011;47650;49.848;9.620;2022-08-16T15:13:47;3.00;;;2.70;;